Cochise — WDD8952 — position and weather

sailwx.info

Track history (hours):
 
Tides and Currents Weather Stations Pressure Air Temp Water Temp Dewpoint Dewpoint Depression Visibility Wind Speed Wind Dir Waves Ship Positions

Cochise

Owner: Sause Bros, Coos Bay, OR. More information available from US FCC via Universal Licensing System and Coast Guard Vessel Documentation Center.

Last reported at 2015-May-22 20:16 UTC. Time now 2015-May-23 14:58 UTC.
Position N 37°55' W 122°24'.

Length 32 m; draft 4.8 m.

Type: Towing. MMSI: 367304990.

Date/timePositionNaut miles runAvg speedWind from/ knotsBaromVisibWave heightAir tempDewpointWater temp
2015-May-22 20:16N 37°55' W 122°24'1 0.7
2015-May-22 18:31N 37°55' W 122°26'0 0.1
2015-May-22 17:31N 37°55' W 122°26'0 0.0
2015-May-22 16:31N 37°55' W 122°26'0 0.0
2015-May-22 15:10N 37°55' W 122°26'6 9.4
2015-May-22 14:30N 38°01' W 122°23'7 0.3
2015-May-21 17:33N 37°54' W 122°26'0 0.0
2015-May-21 16:33N 37°54' W 122°26'0 0.0
2015-May-21 15:33N 37°54' W 122°26'0 0.0
2015-May-21 14:33N 37°54' W 122°26'0 0.0
2015-May-21 13:33N 37°54' W 122°26'0 0.0
2015-May-21 12:33N 37°54' W 122°26'0 0.0
2015-May-21 11:33N 37°54' W 122°26'0 0.1
2015-May-21 10:33N 37°55' W 122°26'0 0.0
2015-May-21 09:30N 37°55' W 122°26'0 0.0
2015-May-21 08:33N 37°55' W 122°26'0 0.0
2015-May-21 07:32N 37°55' W 122°26'0 0.0
2015-May-21 06:33N 37°55' W 122°26'0 0.0
2015-May-21 05:33N 37°54' W 122°26'0 0.1
2015-May-21 04:33N 37°54' W 122°26'0 0.0
2015-May-21 03:33N 37°54' W 122°26'0 0.0
2015-May-21 02:33N 37°54' W 122°26'0 0.0
2015-May-21 01:33N 37°54' W 122°26'0 0.1
2015-May-21 00:33N 37°55' W 122°26'0 0.0
2015-May-20 23:33N 37°55' W 122°26'0 0.0
2015-May-20 22:33N 37°55' W 122°26'0 0.0
2015-May-20 21:32N 37°55' W 122°26'0 0.0
2015-May-20 20:33N 37°55' W 122°26'0 0.0
2015-May-20 19:33N 37°54' W 122°26'0 0.1
2015-May-20 18:33N 37°54' W 122°26'0 0.1
2015-May-20 17:33N 37°55' W 122°26'1 1.1
2015-May-20 16:31N 37°55' W 122°25'0 0.0
2015-May-20 15:31N 37°55' W 122°25'0 0.3
2015-May-20 14:33N 37°55' W 122°25'0 0.0
2015-May-20 13:24N 37°55' W 122°25'0 0.0
2015-May-20 12:30N 37°55' W 122°25'0 0.0
2015-May-20 11:33N 37°55' W 122°25'0 0.0
2015-May-20 10:33N 37°55' W 122°25'0 0.0
2015-May-20 09:33N 37°55' W 122°25'0 0.0
2015-May-20 08:33N 37°55' W 122°25'0 0.0
2015-May-20 07:33N 37°55' W 122°25'0 0.0
2015-May-20 06:33N 37°55' W 122°25'0 0.0
2015-May-20 05:33N 37°55' W 122°25'0 0.0
2015-May-20 04:33N 37°55' W 122°25'0 0.0
2015-May-20 03:33N 37°55' W 122°25'0 0.0
2015-May-20 02:33N 37°55' W 122°25'0 0.0
2015-May-20 01:33N 37°55' W 122°25'0 0.0
2015-May-20 00:33N 37°55' W 122°25'0 0.0
2015-May-19 23:33N 37°55' W 122°25'0 0.0
2015-May-19 22:31N 37°55' W 122°25'0 0.0
2015-May-19 21:33N 37°55' W 122°25'0 0.0
2015-May-19 20:33N 37°55' W 122°25'0 0.0
2015-May-19 19:33N 37°55' W 122°25'0 0.0
2015-May-19 18:33N 37°55' W 122°25'0 0.0
2015-May-19 17:23N 37°55' W 122°25'0 0.3
2015-May-19 16:33N 37°55' W 122°25'1 1.3
2015-May-19 15:33N 37°55' W 122°26'1 1.2
2015-May-19 14:33N 37°53' W 122°26'3 2.8
2015-May-19 13:33N 37°51' W 122°25'7 7.4
2015-May-19 12:33N 37°47' W 122°33'9 8.6
2015-May-19 11:33N 37°46' W 122°44'9 8.7
2015-May-19 10:33N 37°49' W 122°54'8 8.2
2015-May-19 09:33N 37°54' W 123°03'8 8.3
2015-May-19 08:33N 37°58' W 123°12'8 8.4
2015-May-19 07:33N 38°05' W 123°19'8 8.4
2015-May-19 06:33N 38°11' W 123°26'9 8.5
2015-May-19 05:33N 38°16' W 123°35'9 8.6
2015-May-19 04:33N 38°22' W 123°43'9 8.7
2015-May-19 03:33N 38°27' W 123°51'  
Track history (hours):
 
Tides and Currents Weather Stations Pressure Air Temp Water Temp Dewpoint Dewpoint Depression Visibility Wind Speed Wind Dir Waves Ship Positions

Cochise

Owner: Sause Bros, Coos Bay, OR. More information available from US FCC via Universal Licensing System and Coast Guard Vessel Documentation Center.

Last reported at 2015-May-22 20:16 UTC. Time now 2015-May-23 14:58 UTC.
Position N 37°55' W 122°24'.

Length 32 m; draft 4.8 m.

Type: Towing. MMSI: 367304990.

Date/timePositionNaut miles runAvg speedWind from/ knotsBaromVisibWave heightAir tempDewpointWater temp
2015-May-22 20:16N 37°55' W 122°24'1 0.7
2015-May-22 18:31N 37°55' W 122°26'0 0.1
2015-May-22 17:31N 37°55' W 122°26'0 0.0
2015-May-22 16:31N 37°55' W 122°26'0 0.0
2015-May-22 15:10N 37°55' W 122°26'6 9.4
2015-May-22 14:30N 38°01' W 122°23'7 0.3
2015-May-21 17:33N 37°54' W 122°26'0 0.0
2015-May-21 16:33N 37°54' W 122°26'0 0.0
2015-May-21 15:33N 37°54' W 122°26'0 0.0
2015-May-21 14:33N 37°54' W 122°26'0 0.0
2015-May-21 13:33N 37°54' W 122°26'0 0.0
2015-May-21 12:33N 37°54' W 122°26'0 0.0
2015-May-21 11:33N 37°54' W 122°26'0 0.1
2015-May-21 10:33N 37°55' W 122°26'0 0.0
2015-May-21 09:30N 37°55' W 122°26'0 0.0
2015-May-21 08:33N 37°55' W 122°26'0 0.0
2015-May-21 07:32N 37°55' W 122°26'0 0.0
2015-May-21 06:33N 37°55' W 122°26'0 0.0
2015-May-21 05:33N 37°54' W 122°26'0 0.1
2015-May-21 04:33N 37°54' W 122°26'0 0.0
2015-May-21 03:33N 37°54' W 122°26'0 0.0
2015-May-21 02:33N 37°54' W 122°26'0 0.0
2015-May-21 01:33N 37°54' W 122°26'0 0.1
2015-May-21 00:33N 37°55' W 122°26'0 0.0
2015-May-20 23:33N 37°55' W 122°26'0 0.0
2015-May-20 22:33N 37°55' W 122°26'0 0.0
2015-May-20 21:32N 37°55' W 122°26'0 0.0
2015-May-20 20:33N 37°55' W 122°26'0 0.0
2015-May-20 19:33N 37°54' W 122°26'0 0.1
2015-May-20 18:33N 37°54' W 122°26'0 0.1
2015-May-20 17:33N 37°55' W 122°26'1 1.1
2015-May-20 16:31N 37°55' W 122°25'0 0.0
2015-May-20 15:31N 37°55' W 122°25'0 0.3
2015-May-20 14:33N 37°55' W 122°25'0 0.0
2015-May-20 13:24N 37°55' W 122°25'0 0.0
2015-May-20 12:30N 37°55' W 122°25'0 0.0
2015-May-20 11:33N 37°55' W 122°25'0 0.0
2015-May-20 10:33N 37°55' W 122°25'0 0.0
2015-May-20 09:33N 37°55' W 122°25'0 0.0
2015-May-20 08:33N 37°55' W 122°25'0 0.0
2015-May-20 07:33N 37°55' W 122°25'0 0.0
2015-May-20 06:33N 37°55' W 122°25'0 0.0
2015-May-20 05:33N 37°55' W 122°25'0 0.0
2015-May-20 04:33N 37°55' W 122°25'0 0.0
2015-May-20 03:33N 37°55' W 122°25'0 0.0
2015-May-20 02:33N 37°55' W 122°25'0 0.0
2015-May-20 01:33N 37°55' W 122°25'0 0.0
2015-May-20 00:33N 37°55' W 122°25'0 0.0
2015-May-19 23:33N 37°55' W 122°25'0 0.0
2015-May-19 22:31N 37°55' W 122°25'0 0.0
2015-May-19 21:33N 37°55' W 122°25'0 0.0
2015-May-19 20:33N 37°55' W 122°25'0 0.0
2015-May-19 19:33N 37°55' W 122°25'0 0.0
2015-May-19 18:33N 37°55' W 122°25'0 0.0
2015-May-19 17:23N 37°55' W 122°25'0 0.3
2015-May-19 16:33N 37°55' W 122°25'1 1.3
2015-May-19 15:33N 37°55' W 122°26'1 1.2
2015-May-19 14:33N 37°53' W 122°26'3 2.8
2015-May-19 13:33N 37°51' W 122°25'7 7.4
2015-May-19 12:33N 37°47' W 122°33'9 8.6
2015-May-19 11:33N 37°46' W 122°44'9 8.7
2015-May-19 10:33N 37°49' W 122°54'8 8.2
2015-May-19 09:33N 37°54' W 123°03'8 8.3
2015-May-19 08:33N 37°58' W 123°12'8 8.4
2015-May-19 07:33N 38°05' W 123°19'8 8.4
2015-May-19 06:33N 38°11' W 123°26'9 8.5
2015-May-19 05:33N 38°16' W 123°35'9 8.6
2015-May-19 04:33N 38°22' W 123°43'9 8.7
2015-May-19 03:33N 38°27' W 123°51'  

Dump ship's entire track history